Impacts METAR Board
IDs:

KDTW - Detroit Metro/Wayne, MI, US

Updated at: 1900 UTC 02 Oct 2022
Potential Impact None Slight Moderate High
Time 02/07Z 02/08Z 02/09Z 02/10Z 02/11Z 02/12Z 02/13Z 02/14Z 02/15Z 02/16Z 02/17Z 02/18Z 02/19Z
Temp57 56 56 57 58 55 55 57 58 61 63 64 66
Dewpt53 53 52 52 50 46 44 43 43 44 45 42 40
Altim30.21 30.21 30.22 30.23 30.25 30.27 30.30 30.31 30.33 30.34 30.33 30.32 30.31
VIS10 10 10 10 10 10 10 10 10 10 10 10 10
CIG-- -- -- 25 23 28 -- -- -- -- -- -- --
CoverFEWFEWSCTOVCOVCBKNFEWFEWFEWSCTSCTFEWFEW
FltCatVFRVFRVFRMVFRMVFRMVFRVFRVFRVFRVFRVFRVFRVFR
WX--------------------------
WDir30203030205040403020304030
WSpd11 10 7 7 12 15 13 11 12 12 15 8 13
WGst-- -- -- -- 18 21 20 20 -- -- 20 -- 19
Raw hourly METARs
KDTW 020653Z 03011KT 10SM FEW015 FEW250 14/12 A3021 RMK AO2 SLP230 T01390117
KDTW 020753Z 02010KT 10SM FEW020 FEW250 13/12 A3021 RMK AO2 SLP230 T01330117
KDTW 020853Z 03007KT 10SM SCT020 13/11 A3022 RMK AO2 SLP231 T01330111 51005
KDTW 020953Z 03007KT 10SM SCT015 OVC025 14/11 A3023 RMK AO2 SLP236 T01390111
KDTW 021053Z 02012G18KT 10SM FEW015 OVC023 14/10 A3025 RMK AO2 SLP243 T01440100
KDTW 021153Z 05015G21KT 10SM FEW020 BKN028 13/08 A3027 RMK AO2 SLP251 T01280078 10144 20128 53019
KDTW 021253Z 04013G20KT 10SM FEW025 13/07 A3030 RMK AO2 SLP260 T01280067
KDTW 021353Z 04011G20KT 10SM FEW025 FEW250 14/06 A3031 RMK AO2 SLP263 T01390061
KDTW 021453Z 03012KT 10SM FEW030 FEW080 14/06 A3033 RMK AO2 SLP272 T01440061 53020
KDTW 021553Z 02012KT 10SM SCT032 SCT055 16/07 A3034 RMK AO2 SLP273 T01610067
KDTW 021653Z 03015G20KT 10SM SCT033 SCT055 17/07 A3033 RMK AO2 SLP269 T01720072
KDTW 021753Z 04008KT 10SM FEW035 18/06 A3032 RMK AO2 SLP269 T01780056 10183 20128 58003
KDTW 021853Z 03013G19KT 10SM FEW035 FEW250 19/04 A3031 RMK AO2 SLP262 T01890044



Page loaded:  19:04 UTC  |   12:04 PM Pacific  |   01:04 PM Mountain  |   02:04 PM Central  |   03:04 PM Eastern

 

ADVISORIES

FORECASTS

FORECASTS

OBSERVATIONS

USER TOOLS

ABOUT US